Latest Coastal Weather Observations for Lady Elliot Island

IDQ60701

Issued at 4:12 pm EST Monday 8 February 2016 (issued every 10 minutes, with the page automatically refreshed every 10 minutes)

About coastal observations | Map of coastal stations | Coastal observations for QLD | Marine services | Other Formats
Station Details ID: 039059 Name: LADY ELLIOT ISLAND Lat: -24.11 Lon: 152.72 Height: 3.6 m
Data from the previous 72 hours. | See also: Recent months at Lady Elliot Island
Date/Time
EST
Temp

°C
Wind Pressure Rain
since 9am
mm
Weather Cloud Vis
km
Sea
Height
m
Swell
Dir
 
Speed
knots
Gust
knots
hPa Trend Height
m
Period
s
Dir
08/04:00pm 27.7 SE 22 28 1010.2 - 0.0 - - - - - - -
08/03:30pm 27.3 SE 21 28 1010.5 - 0.0 - - - - - - -
08/03:00pm 27.3 SE 22 26 1010.7 - 0.0 - - - - - - -
08/02:30pm 28.2 SE 20 27 1011.1 - 0.0 - - - - - - -
08/02:00pm 28.0 SE 19 26 1011.4 - 0.0 - - - - - - -
08/01:30pm 28.8 SE 19 25 1011.5 - 0.0 - - - - - - -
08/01:00pm 28.7 SE 18 24 1011.7 - 0.0 - - - - - - -
08/12:30pm 28.8 SE 20 25 1012.2 - 0.0 - - - - - - -
08/12:00pm 28.5 SE 20 26 1012.4 - 0.0 - - - - - - -
08/11:30am 28.2 SE 17 23 1012.5 - 0.0 - - - - - - -
08/11:00am 27.9 SE 19 24 1012.8 - 0.0 - - - - - - -
08/10:30am 27.6 SE 19 25 1012.9 - 0.0 - - - - - - -
08/10:00am 27.0 SSE 16 22 1012.9 - 0.0 - - - - - - -
08/09:30am 28.0 SE 16 22 1012.8 - 0.0 - - - - - - -
08/09:00am 27.0 SE 17 25 1012.7 - 0.8 - - - - - - -
08/08:30am 26.6 SE 17 24 1012.8 - 0.8 - - - - - - -
08/08:00am 26.7 SSE 16 22 1012.9 - 0.8 - - - - - - -
08/07:30am 26.3 SSE 16 23 1012.6 - 0.8 - - - - - - -
08/07:00am 26.4 SE 17 26 1012.2 - 0.8 - - - - - - -
08/06:49am 26.1 SE 16 26 1012.1 - 0.8 - - - - - - -
08/06:30am 25.9 SE 19 26 1012.1 - 0.8 - - - - - - -
08/06:00am 26.1 SE 20 25 1011.8 - 0.8 - - - - - - -
08/05:30am 26.1 SE 20 26 1011.5 - 0.8 - - - - - - -
08/05:00am 25.7 SE 19 23 1011.5 - 0.8 - - - - - - -
08/04:30am 25.3 SE 22 26 1011.2 - 0.8 - - - - - - -
08/04:00am 25.5 SE 21 26 1010.8 - 0.8 - - - - - - -
08/03:30am 25.2 SE 19 27 1011.0 - 0.8 - - - - - - -
08/03:00am 25.8 SE 21 28 1011.1 - 0.8 - - - - - - -
08/02:30am 25.4 SE 21 26 1011.1 - 0.8 - - - - - - -
08/02:00am 25.6 SE 19 24 1011.2 - 0.8 - - - - - - -
08/01:30am 25.5 SE 19 24 1011.6 - 0.8 - - - - - - -
08/01:00am 25.8 SE 18 23 1011.9 - 0.8 - - - - - - -
08/12:30am 25.6 SE 16 24 1011.9 - 0.8 - - - - - - -
08/12:00am 25.5 SE 15 21 1012.3 - 0.8 - - - - - - -
 
Date/Time
EST
Temp

°C
Wind Pressure Rain
since 9am
mm
Weather Cloud Vis
km
Sea
Height
m
Swell
Dir
 
Speed
knots
Gust
knots
hPa Trend Height
m
Period
s
Dir
07/11:30pm 25.7 SE 20 26 1012.6 - 0.8 - - - - - - -
07/11:00pm 25.0 SE 16 26 1012.8 - 0.8 - - - - - - -
07/10:30pm 24.7 SE 19 29 1012.9 - 0.2 - - - - - - -
07/10:09pm 25.5 SE 16 26 1012.9 - 0.2 - - - - - - -
07/10:00pm 25.2 SSE 15 21 1012.8 - 0.2 - - - - - - -
07/09:30pm 25.8 SE 20 25 1012.6 - 0.2 - - - - - - -
07/09:00pm 25.7 SE 21 27 1012.4 - 0.2 - - - - - - -
07/08:30pm 25.7 SE 18 25 1012.0 - 0.2 - - - - - - -
07/08:00pm 25.9 SE 18 25 1011.8 - 0.2 - - - - - - -
07/07:30pm 26.0 SE 17 23 1011.5 - 0.2 - - - - - - -
07/07:00pm 26.3 SE 19 24 1011.1 - 0.2 - - - - - - -
07/06:30pm 26.3 SE 21 27 1010.7 - 0.2 - - - - - - -
07/06:00pm 26.3 SE 20 25 1010.5 - 0.2 - - - - - - -
07/05:30pm 26.8 SE 17 21 1010.0 - 0.2 - - - - - - -
07/05:00pm 27.2 SE 17 22 1009.6 - 0.2 - - - - - - -
07/04:30pm 27.7 SE 17 21 1009.3 - 0.2 - - - - - - -
07/04:00pm 28.0 SE 16 21 1009.0 - 0.2 - - - - - - -
07/03:30pm 28.5 SE 17 21 1009.1 - 0.2 - - - - - - -
07/03:00pm 28.2 SE 18 23 1009.1 - 0.2 - - - - - - -
07/02:30pm 29.0 SE 17 21 1009.2 - 0.2 - - - - - - -
07/02:00pm 28.8 SE 19 24 1009.6 - 0.2 - - - - - - -
07/01:30pm 29.3 SE 16 20 1009.8 - 0.2 - - - - - - -
07/01:00pm 29.2 SE 17 21 1009.9 - 0.2 - - - - - - -
07/12:30pm 29.0 SE 14 20 1010.2 - 0.2 - - - - - - -
07/12:00pm 28.2 SE 18 23 1010.5 - 0.2 - - - - - - -
07/11:30am 27.8 SE 13 18 1010.6 - 0.2 - - - - - - -
07/11:00am 27.9 SE 15 19 1010.9 - 0.2 - - - - - - -
07/10:30am 27.6 SE 17 22 1010.8 - 0.2 - - - - - - -
07/10:00am 27.6 SE 17 21 1010.7 - 0.2 - - - - - - -
07/09:30am 27.2 SE 18 22 1010.3 - 0.2 - - - - - - -
07/09:00am 27.2 SE 17 23 1010.2 - 3.6 - - - - - - -
07/08:30am 27.0 ESE 18 23 1010.1 - 3.6 - - - - - - -
07/08:00am 27.1 SE 18 23 1009.8 - 3.6 - - - - - - -
07/07:30am 27.4 SE 17 23 1009.7 - 3.6 - - - - - - -
07/07:00am 27.1 ESE 17 22 1009.5 - 3.6 - - - - - - -
07/06:30am 26.7 ESE 17 21 1009.2 - 3.6 - - - - - - -
07/06:00am 26.7 ESE 15 21 1009.0 - 3.6 - - - - - - -
07/05:30am 26.5 ESE 15 20 1008.8 - 3.6 - - - - - - -
07/05:00am 26.4 ESE 16 21 1008.6 - 3.6 - - - - - - -
07/04:30am 26.4 ESE 16 21 1008.4 - 3.6 - - - - - - -
07/04:00am 26.4 ESE 16 22 1008.1 - 3.6 - - - - - - -
07/03:30am 26.2 ESE 18 22 1007.9 - 3.6 - - - - - - -
07/03:00am 26.1 ESE 19 23 1007.7 - 3.6 - - - - - - -
07/02:30am 26.1 ESE 18 22 1007.8 - 3.6 - - - - - - -
07/02:00am 26.1 ESE 19 24 1008.0 - 3.6 - - - - - - -
07/01:30am 26.0 ESE 17 20 1008.4 - 3.6 - - - - - - -
07/01:00am 25.8 SE 18 23 1008.6 - 3.6 - - - - - - -
07/12:30am 25.9 SE 19 25 1009.0 - 3.6 - - - - - - -
07/12:00am 25.4 SE 20 26 1009.3 - 3.6 - - - - - - -
 
Date/Time
EST
Temp

°C
Wind Pressure Rain
since 9am
mm
Weather Cloud Vis
km
Sea
Height
m
Swell
Dir
 
Speed
knots
Gust
knots
hPa Trend Height
m
Period
s
Dir
06/11:30pm 25.6 ESE 17 23 1009.5 - 3.6 - - - - - - -
06/11:15pm 25.3 ESE 19 27 1009.6 - 3.6 - - - - - - -
06/11:00pm 25.8 SE 21 29 1009.7 - 3.6 - - - - - - -
06/10:30pm 25.2 ESE 17 22 1010.0 - 3.6 - - - - - - -
06/10:00pm 24.7 ESE 19 26 1010.2 - 3.6 - - - - - - -
06/09:30pm 25.1 ESE 20 25 1010.1 - 3.6 - - - - - - -
06/09:00pm 24.4 ESE 23 33 1009.9 - 3.6 - - - - - - -
06/08:57pm 25.0 ESE 21 33 1009.8 - 3.6 - - - - - - -
06/08:30pm 25.0 ESE 22 28 1009.3 - 3.6 - - - - - - -
06/08:00pm 24.6 SE 21 25 1009.1 - 3.6 - - - - - - -
06/07:30pm 25.3 ESE 20 28 1008.6 - 3.6 - - - - - - -
06/07:00pm 24.6 SE 22 27 1008.1 - 3.6 - - - - - - -
06/06:30pm 24.9 SE 23 28 1007.7 - 3.6 - - - - - - -
06/06:00pm 24.2 SE 23 28 1007.1 - 3.6 Recent precip. - - - - - -
06/05:30pm 24.5 SE 22 29 1006.7 - 3.6 - - - - - - -
06/05:00pm 24.8 SE 20 26 1006.5 - 3.4 - - - - - - -
06/04:30pm 24.3 SE 22 29 1006.2 - 3.2 - - - - - - -
06/04:00pm 24.4 SE 20 26 1006.3 - 3.0 - - - - - - -
06/03:30pm 24.1 SE 21 29 1006.4 - 2.2 - - - - - - -
06/03:15pm 25.0 ESE 18 29 1006.4 - 1.8 - - - - - - -
06/03:00pm 24.7 ESE 20 26 1006.4 - 1.4 Recent precip. - - - - - -
06/02:30pm 25.0 ESE 20 27 1006.5 - 1.4 - - - - - - -
06/02:00pm 26.5 ESE 20 25 1006.3 - 1.2 - - - - - - -
06/01:30pm 26.8 ESE 22 29 1005.9 - 1.2 - - - - - - -
06/01:00pm 26.3 ESE 22 28 1005.9 - 1.0 - - - - - - -
06/12:30pm 26.3 ESE 22 27 1006.4 - 1.0 - - - - - - -
06/12:00pm 26.3 ESE 21 26 1006.7 - 1.0 Recent precip. - - - - - -
06/11:30am 26.3 ESE 19 24 1007.0 - 1.0 - - - - - - -
06/11:00am 26.2 ESE 19 24 1007.4 - 0.2 - - - - - - -
06/10:30am 27.5 ESE 18 24 1007.6 - 0.0 - - - - - - -
06/10:00am 27.8 ESE 18 25 1007.6 - 0.0 - - - - - - -
06/09:30am 27.8 ESE 18 23 1007.7 - 0.0 - - - - - - -
06/09:00am 27.6 SE 19 24 1007.7 - 0.6 Recent precip. - - - - - -
06/08:30am 27.3 SE 18 22 1007.7 - 0.4 - - - - - - -
06/08:00am 27.2 ESE 18 23 1007.5 - 0.4 - - - - - - -
06/07:30am 27.2 ESE 17 23 1007.2 - 0.4 - - - - - - -
06/07:00am 27.3 ESE 17 22 1006.9 - 0.4 - - - - - - -
06/06:30am 27.1 ESE 19 24 1006.5 - 0.4 - - - - - - -
06/06:00am 27.0 ESE 19 23 1006.0 - 0.4 - - - - - - -
06/05:30am 26.9 ESE 19 24 1005.5 - 0.4 - - - - - - -
06/05:00am 26.8 ESE 17 23 1005.3 - 0.4 - - - - - - -
06/04:30am 26.8 ESE 17 22 1005.1 - 0.4 - - - - - - -
06/04:00am 26.8 ESE 19 24 1004.9 - 0.4 - - - - - - -
06/03:30am 26.7 ESE 18 24 1004.7 - 0.4 - - - - - - -
06/03:00am 26.7 ESE 19 24 1004.7 - 0.4 - - - - - - -
06/02:30am 26.6 ESE 18 23 1005.0 - 0.4 - - - - - - -
06/02:00am 26.6 ESE 18 24 1005.1 - 0.4 - - - - - - -
06/01:30am 26.5 ESE 19 24 1005.3 - 0.4 - - - - - - -
06/01:00am 26.6 ESE 19 25 1005.6 - 0.4 - - - - - - -
06/12:30am 26.6 ESE 18 24 1005.9 - 0.4 - - - - - - -
06/12:00am 26.6 ESE 19 28 1006.4 - 0.4 - - - - - - -
 
Date/Time
EST
Temp

°C
Wind Pressure Rain
since 9am
mm
Weather Cloud Vis
km
Sea
Height
m
Swell
Dir
 
Speed
knots
Gust
knots
hPa Trend Height
m
Period
s
Dir
05/11:30pm 26.8 ESE 20 25 1007.0 - 0.4 - - - - - - -
05/11:00pm 26.6 SE 19 26 1007.2 - 0.4 - - - - - - -
05/10:30pm 26.7 ESE 19 26 1007.2 - 0.4 - - - - - - -
05/10:00pm 26.6 SE 21 26 1007.2 - 0.4 - - - - - - -
05/09:30pm 26.2 SE 18 23 1007.5 - 0.4 - - - - - - -
05/09:00pm 25.9 SE 21 28 1007.5 - 0.4 - - - - - - -
05/08:30pm 25.7 SE 23 31 1007.4 - 0.4 - - - - - - -
05/08:00pm 26.0 SE 21 27 1007.0 - 0.4 - - - - - - -
05/07:30pm 25.7 SE 23 31 1006.8 - 0.4 - - - - - - -
05/07:00pm 25.0 SE 27 35 1006.6 - 0.4 - - - - - - -
05/06:34pm 24.0 SE 23 34 1006.4 - 0.4 - - - - - - -
05/06:30pm 24.5 SE 23 31 1006.2 - 0.4 - - - - - - -
05/06:00pm 26.3 SE 25 32 1005.8 - 0.4 - - - - - - -
05/05:44pm 26.1 SE 25 35 1005.5 - 0.4 - - - - - - -
05/05:30pm 26.2 SE 25 33 1005.3 - 0.4 - - - - - - -
05/05:00pm 26.0 SE 24 31 1005.0 - 0.4 - - - - - - -
05/04:30pm 24.4 SE 24 32 1005.0 - 0.4 - - - - - - -
05/04:15pm 24.0 SE 23 33 1005.2 - 0.2 - - - - - - -

Other Formats:

Comma delimited format used in spreadsheet applications
http://www.bom.gov.au/fwo/IDQ60701/IDQ60701.94388.axf

JavaScript Object Notation format (JSON) in row-major order
http://www.bom.gov.au/fwo/IDQ60701/IDQ60701.94388.json